Last 24 Hour KALB Observations

Last 24 hours of surface weather observations from the Albany County Airport. Observations taken by the National Weather Service.


		
KALB 250251Z 12007KT 10SM BKN038 OVC250 13/06 A3056 RMK AO2 SLP350 T01280061
 53011=
KALB 250351Z 13007KT 090V160 10SM OVC038 12/06 A3056 RMK AO2 SLP348 T01220061=
KALB 250451Z 12007KT 10SM OVC037 12/06 A3054 RMK AO2 SLP343 T01220061 401720078=
KALB 250551Z 15006G15KT 10SM SCT027 BKN035 OVC260 12/06 A3054 RMK AO2 SLP342
 T01220056 10128 20117 56007=
KALB 250603Z VRB04KT 10SM BKN028 OVC032 12/06 A3054 RMK AO2 T01220061=
KALB 250603Z VRB04KT 10SM BKN028 OVC032 12/06 A3054=
KALB 250551Z 15006G15KT 10SM SCT027 BKN035 OVC260 12/06 A3054 RMK AO2 SLP342
 T01220056 10128 20117 56007=
KALB 250648Z 15009G16KT 10SM SCT028 BKN032 OVC240 12/06 A3051 RMK AO2=
KALB 250648Z 15009G16KT 10SM SCT028 BKN032 OVC240 12/06 A3051=
KALB 250651Z 14010KT 10SM SCT028 BKN032 OVC240 12/06 A3051 RMK AO2 SLP333
 T01170056=
KALB 250751Z 15004KT 10SM FEW030 SCT170 OVC210 11/06 A3048 RMK AO2 SLP323
 T01110061=
KALB 250851Z 15003KT 10SM BKN041 OVC160 12/06 A3048 RMK AO2 SLP321 T01170061
 58013=
KALB 250951Z 00000KT 10SM BKN034 BKN070 OVC085 12/06 A3046 RMK AO2 SLP315
 PRESENT WX VCSH T01170061=
KALB 251051Z VRB03KT 10SM -RA FEW035 BKN047 OVC100 11/08 A3045 RMK AO2 RAB03
 SLP311 P0002 T01110078=
KALB 251151Z 17004KT 10SM -RA SCT040 BKN090 OVC110 11/08 A3045 RMK AO2 SLP311
 P0004 60006 70006 T01110083 10122 20106 56010=
KALB 251251Z 18003KT 7SM -RA FEW022 BKN033 OVC065 11/09 A3043 RMK AO2 SLP307
 P0006 T01110089=
KALB 251320Z 17005KT 3SM -RA BR FEW009 SCT022 OVC032 12/09 A3043 RMK AO2 P0006
 T01170094=
KALB 251320Z 17005KT 3SM -RA BR FEW009 SCT022 OVC032 12/09 A3043=
KALB 251351Z 16004KT 3SM RA BR FEW009 BKN050 OVC070 12/10 A3042 RMK AO2 SLP301
 P0011 T01170100=
KALB 251428Z 15004KT 3SM RA BR SCT007 BKN026 OVC045 12/10 A3041=
KALB 251428Z 15004KT 3SM RA BR SCT007 BKN026 OVC045 12/10 A3041 RMK AO2 P0006
 T01170100=
KALB 251435Z 00000KT 2SM RA BR SCT007 BKN026 OVC045 12/10 A3040 RMK AO2 P0009
 T01170100=
KALB 251435Z 00000KT 2SM RA BR SCT007 BKN026 OVC045 12/10 A3040=
KALB 251451Z 13003KT 2SM RA BR SCT026 BKN045 OVC055 12/10 A3038 RMK AO2 SLP289
 P0017 60034 T01170100 58021=
KALB 251511Z 14004KT 2SM RA BR FEW006 BKN038 OVC050 12/10 A3037 RMK AO2 P0005
 T01170100 $=
KALB 251511Z 14004KT 2SM RA BR FEW006 BKN038 OVC050 12/10 A3037=
KALB 251528Z 19003KT 2SM RA BR SCT006 BKN020 OVC045 12/10 A3036=
KALB 251528Z 19003KT 2SM RA BR SCT006 BKN020 OVC045 12/10 A3036 RMK AO2 P0010
 T01220100 $=
KALB 251545Z 19003KT 2SM RA BR BKN005 BKN018 OVC045 12/11 A3035 RMK AO2 P0018 $=
KALB 251545Z 19003KT 2SM RA BR BKN005 BKN018 OVC045 12/11 A3035=
KALB 251551Z 21003KT 2SM -RA BR BKN005 BKN018 OVC045 12/11 A3034 RMK AO2 SLP275
 P0019 T01220106 $=
KALB 251651Z 00000KT 2SM -RA BR BKN006 OVC013 13/11 A3033 RMK AO2 SFC VIS 2 1/2
 SLP271 P0011 T01280111=
KALB 251724Z 18003KT 2SM -RA BR SCT006 BKN013 OVC030 13/12 A3031 RMK AO2 SFC
 VIS 2 1/2 VIS 2V3 SCT V BKN P0010 T01330117=
KALB 251724Z 18003KT 2SM -RA BR SCT006 BKN013 OVC030 13/12 A3031=
KALB 251732Z 18003KT 2SM -RA BR SCT006 BKN017 OVC030 13/12 A3031=
KALB 251732Z 18003KT 2SM -RA BR SCT006 BKN017 OVC030 13/12 A3031 RMK AO2 SFC
 VIS 2 1/2 VIS 2V3 SCT V BKN P0013 T01330117=
KALB 251751Z 18004KT 6SM -RA BR SCT006 BKN017 OVC023 13/12 A3030 RMK AO2 SLP260
 P0014 60078 T01330117 10133 20111 56028=
KALB 251851Z 17003KT 10SM -RA FEW006 BKN017 OVC025 14/12 A3027 RMK AO2 SLP250
 PCPN VRY LGT P0001 T01390122=
KALB 251951Z 17003KT 3SM -RA BR FEW006 BKN017 OVC023 14/13 A3024 RMK AO2 SLP241
 FEW V SCT PCPN VRY LGT P0000 T01440128=
KALB 252024Z 14003KT 3SM -RA BR BKN006 BKN014 OVC023 15/13 A3022 RMK AO2 PCPN
 VRY LGT P0000 T01500128=
KALB 252024Z 14003KT 3SM -RA BR BKN006 BKN014 OVC023 15/13 A3022=
KALB 252034Z 11003KT 2SM -RA BR BKN006 BKN012 OVC023 14/13 A3021=
KALB 252034Z 11003KT 2SM -RA BR BKN006 BKN012 OVC023 14/13 A3021 RMK AO2 SFC
 VIS 3 P0000 T01440128=
KALB 252051Z 07003KT 2SM -RA BR BKN006 OVC012 14/13 A3021 RMK AO2 SFC VIS 3
 SLP230 P0001 60002 T01440128 58030=
KALB 252124Z 08005KT 1 1/4SM R01/4500VP6000FT RA BR BKN005 OVC010 14/12 A3018
 RMK AO2 P0015 T01390122=
KALB 252124Z 08005KT 1 1/4SM R01/4500VP6000FT RA BR BKN005 OVC010 14/12 A3018=
KALB 252151Z 34004KT 1 1/4SM -RA BR BKN005 OVC014 14/12 A3019 RMK AO2 SFC VIS 1
 1/2 SLP223 PCPN VRY LGT P0020 T01390122=
KALB 252244Z 03003KT 1 1/4SM BR BKN004 OVC014 14/12 A3017=
KALB 252244Z 03003KT 1 1/4SM BR BKN004 OVC014 14/12 A3017 RMK AO2 RAE27 P0000
 T01390122=
KALB 252251Z 00000KT 1 1/4SM BR BKN004 OVC014 14/12 A3017 RMK AO2 RAE27 SLP216
 P0000 T01390122=
KALB 252351Z 00000KT 1 3/4SM BR OVC004 14/13 A3016 RMK AO2 TWR VIS 2 SLP212
 60022 T01390128 10150 20133 56017=
KALB 260051Z 08004KT 1 3/4SM BR OVC004 14/12 A3015 RMK AO2 TWR VIS 2 SLP209
 T01390122=
KALB 260151Z 00000KT 1 3/4SM BR OVC003 14/13 A3012 RMK AO2 TWR VIS 2 SLP200
 T01440133=
KALB 260251Z 13003KT 1 3/4SM BR BKN003 OVC008 16/14 A3010 RMK AO2 TWR VIS 2
 SLP192 T01560139 58019=